createdAt,value
2022-11-07T01:24:08.543Z,11.70
2022-11-07T01:29:08.484Z,11.44
2022-11-07T01:34:08.470Z,11.36
2022-11-07T01:39:08.380Z,11.29
2022-11-07T01:44:08.392Z,11.17
2022-11-07T01:49:08.323Z,11.22
2022-11-07T01:54:08.289Z,11.10
2022-11-07T01:59:08.333Z,10.94
2022-11-07T02:04:08.123Z,10.99
2022-11-07T02:09:08.062Z,10.97
2022-11-07T02:14:08.008Z,10.99
2022-11-07T02:19:11.447Z,11.00
2022-11-07T02:24:09.090Z,11.00
2022-11-07T02:29:07.887Z,10.92
2022-11-07T02:34:07.927Z,10.74
2022-11-07T02:39:07.926Z,11.00
2022-11-07T02:44:07.733Z,11.04
2022-11-07T02:49:07.634Z,11.02
2022-11-07T02:54:07.633Z,11.04
2022-11-07T02:59:08.665Z,11.11
2022-11-07T03:04:07.504Z,11.02
2022-11-07T03:09:07.491Z,11.02
2022-11-07T03:14:07.528Z,10.99
2022-11-07T03:19:14.902Z,11.00
2022-11-07T03:24:07.405Z,10.96
2022-11-07T03:29:07.269Z,11.07
2022-11-07T03:34:07.162Z,11.10
2022-11-07T03:39:07.330Z,10.86
2022-11-07T03:44:07.207Z,11.02
2022-11-07T03:49:07.147Z,10.97
2022-11-07T03:54:07.147Z,10.86
2022-11-07T03:59:07.116Z,10.81
2022-11-07T04:04:08.235Z,10.81
2022-11-07T04:09:06.951Z,10.85
2022-11-07T04:14:06.746Z,10.84
2022-11-07T04:19:06.687Z,10.79
2022-11-07T04:24:06.611Z,10.67
2022-11-07T04:29:06.594Z,10.74
2022-11-07T04:34:06.687Z,10.68
2022-11-07T04:39:06.633Z,10.68
2022-11-07T04:44:07.430Z,10.76
2022-11-07T04:49:07.402Z,10.73
2022-11-07T04:54:06.479Z,10.68
2022-11-07T04:59:06.364Z,10.73
2022-11-07T05:04:06.228Z,10.71
2022-11-07T05:09:06.127Z,10.82
2022-11-07T05:14:06.278Z,10.86
2022-11-07T05:19:06.621Z,11.06
2022-11-07T05:24:06.028Z,11.02
2022-11-07T05:29:05.956Z,11.10
2022-11-07T05:34:08.661Z,11.04
2022-11-07T05:39:06.939Z,11.19
2022-11-07T05:44:05.827Z,11.29
2022-11-07T05:49:05.807Z,11.35
2022-11-07T05:54:05.744Z,11.17
2022-11-07T05:59:05.879Z,11.25
2022-11-07T06:04:05.702Z,11.22
2022-11-07T06:09:07.716Z,11.33
2022-11-07T06:14:05.667Z,11.24
2022-11-07T06:19:05.579Z,11.32
2022-11-07T06:24:07.255Z,11.29
2022-11-07T06:29:06.395Z,11.49
2022-11-07T06:34:05.282Z,11.61
2022-11-07T06:39:06.563Z,11.88
2022-11-07T06:44:05.095Z,11.95
2022-11-07T06:49:05.072Z,12.09
2022-11-07T06:54:05.056Z,12.31
2022-11-07T06:59:05.415Z,12.29
2022-11-07T07:04:04.877Z,12.38
2022-11-07T07:09:04.894Z,12.39
2022-11-07T07:14:10.212Z,12.54
2022-11-07T07:19:05.736Z,12.75
2022-11-07T07:24:04.687Z,12.54
2022-11-07T07:29:04.601Z,12.72
2022-11-07T07:34:04.917Z,12.68
2022-11-07T07:39:04.647Z,12.79
2022-11-07T07:44:04.448Z,12.92
2022-11-07T07:49:05.457Z,12.89
2022-11-07T07:54:04.401Z,12.83
2022-11-07T07:59:04.369Z,13.01
2022-11-07T08:04:04.286Z,13.15
2022-11-07T08:09:05.372Z,13.14
2022-11-07T08:14:04.198Z,13.45
2022-11-07T08:19:04.131Z,13.42
2022-11-07T08:24:04.004Z,13.59
2022-11-07T08:29:03.956Z,13.57
2022-11-07T08:34:04.023Z,13.57
2022-11-07T08:39:03.851Z,13.46
2022-11-07T08:44:03.802Z,13.59
2022-11-07T08:49:03.780Z,13.62
2022-11-07T08:54:03.687Z,13.60
2022-11-07T08:59:03.641Z,13.84
2022-11-07T09:04:04.718Z,13.89
2022-11-07T09:09:03.523Z,13.92
2022-11-07T09:14:03.498Z,13.91
2022-11-07T09:19:03.531Z,14.03
2022-11-07T09:24:03.488Z,14.32
2022-11-07T09:29:03.392Z,14.22
2022-11-07T09:34:03.312Z,14.35
2022-11-07T09:39:03.258Z,14.33
2022-11-07T09:44:04.897Z,14.33
2022-11-07T09:49:03.163Z,14.32
2022-11-07T09:54:03.044Z,14.33
2022-11-07T09:59:02.965Z,14.10
2022-11-07T10:04:24.114Z,13.99
2022-11-07T10:09:03.872Z,13.69
2022-11-07T10:14:02.788Z,13.48
2022-11-07T10:19:02.800Z,13.33
2022-11-07T10:24:02.713Z,13.41
2022-11-07T10:29:02.739Z,13.51
2022-11-07T10:34:02.705Z,13.38
2022-11-07T10:39:02.620Z,13.32
2022-11-07T10:44:02.555Z,13.26
2022-11-07T10:49:02.428Z,13.10
2022-11-07T10:54:02.473Z,13.14
2022-11-07T10:59:03.398Z,13.36
2022-11-07T11:04:02.320Z,13.54
2022-11-07T11:09:02.328Z,13.70
2022-11-07T11:14:02.152Z,13.95
2022-11-07T11:19:02.090Z,14.00
2022-11-07T11:24:02.039Z,14.20
2022-11-07T11:29:01.973Z,14.14
2022-11-07T11:34:01.933Z,14.15
2022-11-07T11:39:05.279Z,14.33
2022-11-07T11:44:01.910Z,14.42
2022-11-07T11:49:01.864Z,14.46
2022-11-07T11:54:01.824Z,14.55
2022-11-07T11:59:01.741Z,14.73
2022-11-07T12:04:03.961Z,14.81
2022-11-07T12:09:02.681Z,14.57
2022-11-07T12:14:01.548Z,14.69
2022-11-07T12:19:01.516Z,14.69
2022-11-07T12:24:01.462Z,14.88
2022-11-07T12:29:01.390Z,14.73
2022-11-07T12:34:01.265Z,14.89
2022-11-07T12:39:01.298Z,14.81
2022-11-07T12:44:01.222Z,15.06
2022-11-07T12:49:01.203Z,15.13
2022-11-07T12:54:02.125Z,15.20
2022-11-07T12:59:01.132Z,15.38
2022-11-07T13:04:01.077Z,15.43
2022-11-07T13:09:01.118Z,15.46
2022-11-07T13:14:01.075Z,15.44
2022-11-07T13:19:00.945Z,15.36
2022-11-07T13:24:01.820Z,15.38
2022-11-07T13:29:00.811Z,15.41
2022-11-07T13:34:00.777Z,15.31
2022-11-07T13:39:00.629Z,15.46
2022-11-07T13:44:00.555Z,15.51
2022-11-07T13:49:00.524Z,15.49
2022-11-07T13:54:00.514Z,15.47
2022-11-07T13:59:00.380Z,15.50
2022-11-07T14:04:00.407Z,15.51
2022-11-07T14:09:00.295Z,15.38
2022-11-07T14:14:00.301Z,15.38
2022-11-07T14:19:00.264Z,15.38
2022-11-07T14:24:00.166Z,15.32
2022-11-07T14:29:00.152Z,15.28
2022-11-07T14:34:00.119Z,15.31
2022-11-07T14:38:59.986Z,15.25
2022-11-07T14:44:00.046Z,15.07
2022-11-07T14:49:00.978Z,14.98
2022-11-07T14:54:00.300Z,15.01
2022-11-07T14:59:01.269Z,14.92
2022-11-07T15:03:59.763Z,14.92
2022-11-07T15:08:59.791Z,14.88
2022-11-07T15:13:59.609Z,14.72
2022-11-07T15:18:59.866Z,14.88
2022-11-07T15:23:59.966Z,14.83
2022-11-07T15:29:00.976Z,14.81
2022-11-07T15:33:59.569Z,14.70
2022-11-07T15:39:04.556Z,14.70
2022-11-07T15:44:09.434Z,14.60
2022-11-07T15:49:14.580Z,14.51
2022-11-07T15:54:03.828Z,14.43
2022-11-07T15:58:59.786Z,14.57
2022-11-07T16:04:09.809Z,14.51
2022-11-07T16:08:59.747Z,14.47
2022-11-07T16:14:21.684Z,14.51
2022-11-07T16:19:00.331Z,14.46
2022-11-07T16:23:58.946Z,14.52
2022-11-07T16:28:59.803Z,14.65
2022-11-07T16:33:59.488Z,14.64
2022-11-07T16:38:59.992Z,14.60
2022-11-07T16:44:00.611Z,14.68
2022-11-07T16:48:58.727Z,14.70
2022-11-07T16:54:00.618Z,14.75
2022-11-07T16:58:58.514Z,14.69
2022-11-07T17:04:00.635Z,14.75
2022-11-07T17:09:08.774Z,14.64
2022-11-07T17:14:00.428Z,14.69
2022-11-07T17:19:00.465Z,14.69
2022-11-07T17:23:58.156Z,14.81
2022-11-07T17:28:58.797Z,14.83
2022-11-07T17:33:58.089Z,14.75
2022-11-07T17:38:58.057Z,14.73
2022-11-07T17:43:58.073Z,14.72
2022-11-07T17:48:58.304Z,14.78
2022-11-07T17:53:58.668Z,14.70
2022-11-07T17:59:05.701Z,14.68
2022-11-07T18:03:57.744Z,14.70
2022-11-07T18:08:58.226Z,14.65
2022-11-07T18:13:57.872Z,14.61
2022-11-07T18:18:57.669Z,14.73
2022-11-07T18:23:58.618Z,14.73
2022-11-07T18:28:57.477Z,14.70
2022-11-07T18:33:57.432Z,14.65
2022-11-07T18:38:57.705Z,14.77
2022-11-07T18:44:01.789Z,14.64
2022-11-07T18:48:58.218Z,14.65
2022-11-07T18:53:57.284Z,14.65
2022-11-07T18:58:58.214Z,14.84
2022-11-07T19:03:57.147Z,14.77
2022-11-07T19:08:57.052Z,14.78
2022-11-07T19:13:56.999Z,14.72
2022-11-07T19:18:56.921Z,14.80
2022-11-07T19:23:56.939Z,14.80
2022-11-07T19:29:05.696Z,14.86
2022-11-07T19:33:56.691Z,14.69
2022-11-07T19:38:56.724Z,14.77
2022-11-07T19:43:57.692Z,14.75
2022-11-07T19:48:56.596Z,14.69
2022-11-07T19:53:56.505Z,14.78
2022-11-07T19:58:56.449Z,14.69
2022-11-07T20:03:56.457Z,14.75
2022-11-07T20:08:56.354Z,14.75
2022-11-07T20:14:00.193Z,14.68
2022-11-07T20:18:57.265Z,14.72
2022-11-07T20:23:56.193Z,14.68
2022-11-07T20:28:56.132Z,14.52
2022-11-07T20:33:56.167Z,14.57
2022-11-07T20:38:56.023Z,14.45
2022-11-07T20:43:56.054Z,14.42
2022-11-07T20:48:55.895Z,14.40
2022-11-07T20:53:55.840Z,14.36
2022-11-07T20:58:55.778Z,14.28
2022-11-07T21:03:55.794Z,14.21
2022-11-07T21:08:55.690Z,14.12
2022-11-07T21:13:55.663Z,14.14
2022-11-07T21:18:55.590Z,14.18
2022-11-07T21:23:55.549Z,14.25
2022-11-07T21:28:55.473Z,14.03
2022-11-07T21:33:56.483Z,14.02
2022-11-07T21:38:55.502Z,13.96
2022-11-07T21:43:55.422Z,14.03
2022-11-07T21:48:55.377Z,14.04
2022-11-07T21:53:55.199Z,13.96
2022-11-07T21:58:55.137Z,13.97
2022-11-07T22:04:11.830Z,13.91
2022-11-07T22:08:56.130Z,14.07
2022-11-07T22:13:55.119Z,14.03
2022-11-07T22:18:54.997Z,13.95
2022-11-07T22:23:55.042Z,13.95
2022-11-07T22:28:54.966Z,13.63
2022-11-07T22:33:54.768Z,13.71
2022-11-07T22:38:54.718Z,13.73
2022-11-07T22:43:54.657Z,13.75
2022-11-07T22:48:54.655Z,13.71
2022-11-07T22:53:58.757Z,13.79
2022-11-07T22:58:54.649Z,13.57
2022-11-07T23:03:54.581Z,13.51
2022-11-07T23:08:54.412Z,13.54
2022-11-07T23:13:54.323Z,13.46
2022-11-07T23:18:54.400Z,13.36
2022-11-07T23:23:54.218Z,13.33
2022-11-07T23:28:55.173Z,13.25
2022-11-07T23:33:54.188Z,13.25
2022-11-07T23:38:54.146Z,13.30
2022-11-07T23:43:54.062Z,13.32
2022-11-07T23:48:53.947Z,13.28
2022-11-07T23:53:53.898Z,13.12
2022-11-07T23:58:53.902Z,13.08
